createdAt,value
2022-12-04T00:01:37.858Z,23.20
2022-12-04T00:04:08.351Z,22.87
2022-12-04T00:06:40.631Z,21.93
2022-12-04T00:09:10.756Z,22.67
2022-12-04T00:11:42.220Z,23.17
2022-12-04T00:14:14.839Z,24.37
2022-12-04T00:16:45.019Z,25.23
2022-12-04T00:19:15.360Z,23.13
2022-12-04T00:21:46.074Z,20.60
2022-12-04T00:24:18.674Z,22.17
2022-12-04T00:26:48.848Z,21.33
2022-12-04T00:29:21.836Z,19.63
2022-12-04T00:31:52.464Z,19.37
2022-12-04T00:34:22.898Z,18.00
2022-12-04T00:36:52.990Z,19.23
2022-12-04T00:39:25.430Z,19.07
2022-12-04T00:41:55.533Z,18.73
2022-12-04T00:44:28.354Z,17.63
2022-12-04T00:46:59.037Z,15.90
2022-12-04T00:49:29.858Z,19.03
2022-12-04T00:52:00.167Z,18.07
2022-12-04T00:54:30.703Z,19.37
2022-12-04T00:57:01.954Z,19.93
2022-12-04T00:59:35.265Z,18.90
2022-12-04T01:02:05.377Z,19.90
2022-12-04T01:04:35.480Z,19.77
2022-12-04T01:07:06.061Z,18.50
2022-12-04T01:09:36.522Z,15.70
2022-12-04T01:12:06.969Z,15.90
2022-12-04T01:14:40.079Z,17.93
2022-12-04T01:17:10.220Z,16.77
2022-12-04T01:19:40.321Z,16.50
2022-12-04T01:22:10.430Z,14.93
2022-12-04T01:24:40.902Z,14.77
2022-12-04T01:27:11.870Z,15.33
2022-12-04T01:29:44.580Z,15.17
2022-12-04T01:32:15.370Z,17.70
2022-12-04T01:34:45.712Z,15.30
2022-12-04T01:37:16.172Z,14.60
2022-12-04T01:39:46.268Z,16.70
2022-12-04T01:42:18.192Z,15.07
2022-12-04T01:45:37.349Z,15.30
2022-12-04T01:48:19.234Z,15.60
2022-12-04T01:50:53.241Z,16.40
2022-12-04T01:53:24.684Z,15.50
2022-12-04T01:55:55.392Z,16.47
2022-12-04T01:58:32.464Z,17.40
2022-12-04T02:01:10.406Z,15.83
2022-12-04T02:03:42.447Z,16.03
2022-12-04T02:06:12.631Z,16.50
2022-12-04T02:08:43.054Z,16.80
2022-12-04T02:11:30.775Z,15.80
2022-12-04T02:14:11.782Z,14.93
2022-12-04T02:16:54.277Z,17.07
2022-12-04T02:19:56.623Z,18.13
2022-12-04T02:22:48.410Z,16.50
2022-12-04T02:25:32.157Z,17.33
2022-12-04T02:28:13.704Z,15.17
2022-12-04T02:30:46.525Z,16.70
2022-12-04T02:33:28.016Z,19.93
2022-12-04T02:36:07.996Z,17.00
2022-12-04T02:38:45.124Z,18.77
2022-12-04T02:41:27.184Z,18.07
2022-12-04T02:44:10.434Z,18.73
2022-12-04T02:46:45.281Z,18.97
2022-12-04T02:49:22.282Z,15.63
2022-12-04T02:51:55.346Z,17.77
2022-12-04T02:54:33.340Z,17.90
2022-12-04T02:57:07.824Z,18.20
2022-12-04T02:59:45.540Z,18.80
2022-12-04T03:02:24.792Z,19.00
2022-12-04T03:04:58.737Z,18.20
2022-12-04T03:07:37.010Z,17.70
2022-12-04T03:10:13.910Z,16.13
2022-12-04T03:12:50.758Z,15.73
2022-12-04T03:15:30.232Z,14.00
2022-12-04T03:18:08.255Z,14.37
2022-12-04T03:20:41.677Z,15.80
2022-12-04T03:23:19.963Z,14.93
2022-12-04T03:26:01.407Z,14.97
2022-12-04T03:28:44.529Z,13.63
2022-12-04T03:31:26.476Z,13.50
2022-12-04T03:34:03.096Z,12.53
2022-12-04T03:36:40.940Z,13.27
2022-12-04T03:39:21.639Z,12.40
2022-12-04T03:42:02.968Z,11.30
2022-12-04T03:44:44.140Z,10.83
2022-12-04T03:47:21.343Z,11.37
2022-12-04T03:50:00.207Z,11.40
2022-12-04T03:52:37.484Z,12.80
2022-12-04T03:55:17.100Z,10.77
2022-12-04T03:57:51.996Z,11.30
2022-12-04T04:00:25.255Z,11.13
2022-12-04T04:03:05.915Z,11.63
2022-12-04T04:05:40.624Z,11.03
2022-12-04T04:08:34.163Z,11.67
2022-12-04T04:11:14.519Z,11.77
2022-12-04T04:14:07.672Z,10.90
2022-12-04T04:16:55.591Z,12.27
2022-12-04T04:19:45.077Z,11.37
2022-12-04T04:22:29.956Z,11.27
2022-12-04T04:25:09.089Z,8.73
2022-12-04T04:27:39.405Z,12.73
2022-12-04T04:30:12.268Z,12.70
2022-12-04T04:32:52.400Z,10.90
2022-12-04T04:35:35.877Z,9.43
2022-12-04T04:38:22.829Z,11.93
2022-12-04T04:41:01.558Z,10.33
2022-12-04T04:43:39.851Z,10.23
2022-12-04T04:46:17.916Z,11.07
2022-12-04T04:48:56.443Z,11.70
2022-12-04T04:51:32.083Z,12.00
2022-12-04T04:54:09.220Z,11.27
2022-12-04T04:56:46.070Z,11.00
2022-12-04T04:59:19.250Z,12.30
2022-12-04T05:01:51.207Z,10.57
2022-12-04T05:04:21.369Z,12.07
2022-12-04T05:06:56.441Z,10.67
2022-12-04T05:09:26.780Z,13.63
2022-12-04T05:11:57.046Z,9.10
2022-12-04T05:14:27.170Z,12.73
2022-12-04T05:17:01.376Z,12.13
2022-12-04T05:19:48.153Z,12.03
2022-12-04T05:22:21.041Z,10.57
2022-12-04T05:24:53.803Z,11.40
2022-12-04T05:27:25.121Z,11.40
2022-12-04T05:29:57.472Z,11.47
2022-12-04T05:32:30.859Z,11.77
2022-12-04T05:35:05.193Z,10.70
2022-12-04T05:37:43.474Z,12.17
2022-12-04T05:40:15.025Z,13.37
2022-12-04T05:42:45.232Z,11.70
2022-12-04T05:45:15.592Z,12.33
2022-12-04T05:47:47.603Z,10.87
2022-12-04T05:50:17.642Z,9.90
2022-12-04T05:52:50.333Z,10.60
2022-12-04T05:55:20.594Z,10.93
2022-12-04T05:57:50.727Z,11.60
2022-12-04T06:00:21.959Z,10.53
2022-12-04T06:02:52.195Z,9.47
2022-12-04T06:05:22.956Z,9.63
2022-12-04T06:07:55.718Z,10.77
2022-12-04T06:10:25.836Z,9.80
2022-12-04T06:12:58.349Z,10.57
2022-12-04T06:15:28.468Z,11.30
2022-12-04T06:17:58.624Z,12.37
2022-12-04T06:20:28.778Z,15.10
2022-12-04T06:23:01.660Z,13.53
2022-12-04T06:25:31.978Z,13.33
2022-12-04T06:28:02.098Z,15.67
2022-12-04T06:30:32.243Z,14.20
2022-12-04T06:33:02.368Z,11.97
2022-12-04T06:35:35.895Z,11.03
2022-12-04T06:38:08.644Z,11.17
2022-12-04T06:40:43.200Z,13.27
2022-12-04T06:43:13.275Z,14.90
2022-12-04T06:45:43.886Z,16.13
2022-12-04T06:48:14.264Z,14.27
2022-12-04T06:50:44.413Z,14.93
2022-12-04T06:53:17.147Z,12.70
2022-12-04T06:55:51.717Z,12.63
2022-12-04T06:58:24.642Z,13.30
2022-12-04T07:00:55.048Z,11.60
2022-12-04T07:03:29.451Z,11.27
2022-12-04T07:05:59.490Z,14.50
2022-12-04T07:08:32.264Z,14.67
2022-12-04T07:11:07.708Z,10.13
2022-12-04T07:13:38.624Z,11.30
2022-12-04T07:16:13.606Z,13.37
2022-12-04T07:18:45.119Z,14.13
2022-12-04T07:21:21.155Z,13.47
2022-12-04T07:23:57.707Z,11.87
2022-12-04T07:26:29.521Z,12.07
2022-12-04T07:29:01.677Z,12.30
2022-12-04T07:31:33.267Z,10.93
2022-12-04T07:34:03.405Z,11.83
2022-12-04T07:36:33.521Z,11.57
2022-12-04T07:39:09.675Z,11.47
2022-12-04T07:41:39.914Z,10.87
2022-12-04T07:44:10.118Z,11.43
2022-12-04T07:46:40.198Z,13.17
2022-12-04T07:49:10.348Z,15.57
2022-12-04T07:51:40.441Z,10.97
2022-12-04T07:54:13.151Z,13.50
2022-12-04T07:56:43.383Z,14.40
2022-12-04T07:59:13.676Z,12.47
2022-12-04T08:01:43.879Z,13.53
2022-12-04T08:04:15.301Z,15.30
2022-12-04T08:06:45.810Z,13.67
2022-12-04T08:09:18.516Z,11.70
2022-12-04T08:11:48.572Z,11.20
2022-12-04T08:14:19.153Z,11.93
2022-12-04T08:16:53.052Z,14.00
2022-12-04T08:19:23.434Z,12.60
2022-12-04T08:21:53.798Z,14.70
2022-12-04T08:24:30.720Z,13.20
2022-12-04T08:27:01.020Z,12.13
2022-12-04T08:29:31.226Z,12.93
2022-12-04T08:32:01.342Z,13.13
2022-12-04T08:34:31.764Z,15.93
2022-12-04T08:37:02.107Z,12.97
2022-12-04T08:39:35.033Z,12.43
2022-12-04T08:42:05.116Z,14.77
2022-12-04T08:44:35.173Z,14.53
2022-12-04T08:47:05.280Z,14.20
2022-12-04T08:49:35.620Z,11.90
2022-12-04T08:52:05.764Z,13.53
2022-12-04T08:54:38.485Z,15.17
2022-12-04T08:57:09.715Z,19.67
2022-12-04T08:59:39.791Z,13.67
2022-12-04T09:02:09.945Z,15.63
2022-12-04T09:04:40.209Z,15.57
2022-12-04T09:07:10.380Z,13.43
2022-12-04T09:09:55.381Z,16.77
2022-12-04T09:12:25.696Z,14.33
2022-12-04T09:14:56.100Z,13.50
2022-12-04T09:17:26.184Z,13.83
2022-12-04T09:20:00.728Z,16.20
2022-12-04T09:22:51.270Z,14.43
2022-12-04T09:25:24.679Z,21.37
2022-12-04T09:27:54.863Z,24.07
2022-12-04T09:30:27.394Z,18.57
2022-12-04T09:32:57.610Z,14.90
2022-12-04T09:35:27.768Z,18.67
2022-12-04T09:37:59.191Z,19.37
2022-12-04T09:40:42.897Z,16.60
2022-12-04T09:43:29.199Z,14.97
2022-12-04T09:46:09.575Z,15.57
2022-12-04T09:48:44.132Z,15.80
2022-12-04T09:51:19.742Z,17.00
2022-12-04T09:53:57.600Z,16.40
2022-12-04T09:56:34.978Z,15.50
2022-12-04T09:59:17.110Z,17.87
2022-12-04T10:01:51.395Z,18.70
2022-12-04T10:04:22.482Z,17.33
2022-12-04T10:07:05.091Z,14.27
2022-12-04T10:09:48.117Z,17.07
2022-12-04T10:12:34.869Z,18.10
2022-12-04T10:15:31.575Z,13.80
2022-12-04T10:18:31.812Z,14.80
2022-12-04T10:21:31.107Z,15.43
2022-12-04T10:24:27.094Z,15.63
2022-12-04T10:27:02.299Z,13.07
2022-12-04T10:29:40.371Z,16.50
2022-12-04T10:32:23.267Z,15.70
2022-12-04T10:34:59.174Z,13.53
2022-12-04T10:37:31.364Z,14.57
2022-12-04T10:40:15.966Z,13.63
2022-12-04T10:42:57.729Z,12.00
2022-12-04T10:45:30.400Z,13.23
2022-12-04T10:48:01.660Z,16.70
2022-12-04T10:50:31.827Z,17.20
2022-12-04T10:53:02.396Z,11.80
2022-12-04T10:55:38.329Z,16.73
2022-12-04T10:58:20.563Z,21.97
2022-12-04T11:01:07.112Z,13.17
2022-12-04T11:03:38.076Z,15.17
2022-12-04T11:06:12.525Z,13.47
2022-12-04T11:08:47.086Z,13.47
2022-12-04T11:11:27.443Z,12.77
2022-12-04T11:14:10.069Z,13.83
2022-12-04T11:16:50.013Z,12.80
2022-12-04T11:19:38.939Z,11.47
2022-12-04T11:22:18.641Z,13.90
2022-12-04T11:24:57.940Z,16.97
2022-12-04T11:27:34.881Z,12.13
2022-12-04T11:30:13.251Z,15.53
2022-12-04T11:32:49.221Z,13.97
2022-12-04T11:35:24.878Z,14.33
2022-12-04T11:38:00.987Z,15.43
2022-12-04T11:40:31.982Z,13.97
2022-12-04T11:43:07.669Z,11.27
2022-12-04T11:45:40.490Z,13.77
2022-12-04T11:48:22.427Z,15.33
2022-12-04T11:51:08.375Z,12.00
2022-12-04T11:53:55.099Z,14.87
2022-12-04T11:56:35.069Z,12.77
2022-12-04T11:59:30.824Z,14.50
2022-12-04T12:02:33.700Z,13.97
2022-12-04T12:05:30.076Z,15.77
2022-12-04T12:08:14.246Z,14.40
2022-12-04T12:11:00.057Z,14.47
2022-12-04T12:13:46.094Z,13.83
2022-12-04T12:16:34.813Z,14.37
2022-12-04T12:19:41.335Z,13.83
2022-12-04T12:22:43.460Z,12.30
2022-12-04T12:25:22.530Z,13.47
2022-12-04T12:28:28.000Z,13.03
2022-12-04T12:31:22.626Z,14.63
2022-12-04T12:33:59.959Z,11.80
2022-12-04T12:36:43.454Z,12.90
2022-12-04T12:39:25.431Z,13.40
2022-12-04T12:42:00.184Z,12.40
2022-12-04T12:44:42.322Z,12.80
2022-12-04T12:47:20.520Z,14.03
2022-12-04T12:49:58.402Z,13.77
2022-12-04T12:52:38.340Z,13.53
2022-12-04T12:55:22.883Z,11.67
2022-12-04T12:58:03.308Z,13.37
2022-12-04T13:00:42.315Z,14.07
2022-12-04T13:03:31.436Z,13.37
2022-12-04T13:06:08.954Z,15.20
2022-12-04T13:08:49.342Z,17.80
2022-12-04T13:11:27.066Z,15.10
2022-12-04T13:14:02.371Z,12.87
2022-12-04T13:16:41.304Z,15.87
2022-12-04T13:19:21.175Z,12.70
2022-12-04T13:22:03.806Z,15.77
2022-12-04T13:25:15.161Z,25.93
2022-12-04T13:28:06.652Z,25.47
2022-12-04T13:30:51.717Z,16.67
2022-12-04T13:34:17.731Z,17.60
2022-12-04T13:37:30.371Z,15.97
2022-12-04T13:40:42.235Z,17.37
2022-12-04T13:43:30.298Z,12.33
2022-12-04T13:46:05.479Z,28.63
2022-12-04T13:48:41.006Z,19.73
2022-12-04T13:51:39.240Z,19.50
2022-12-04T13:54:32.281Z,15.17
2022-12-04T13:57:23.639Z,20.13
2022-12-04T14:00:10.113Z,17.60
2022-12-04T14:02:41.514Z,14.87
2022-12-04T14:05:14.989Z,14.57
2022-12-04T14:08:05.623Z,15.20
2022-12-04T14:10:41.820Z,16.50
2022-12-04T14:13:24.160Z,14.63
2022-12-04T14:16:10.206Z,13.70
2022-12-04T14:18:41.503Z,14.40
2022-12-04T14:21:11.779Z,15.23
2022-12-04T14:23:45.103Z,17.70
2022-12-04T14:27:03.640Z,17.30
2022-12-04T14:29:44.934Z,15.60
2022-12-04T14:32:25.991Z,13.40
2022-12-04T14:34:57.562Z,15.57
2022-12-04T14:37:34.404Z,19.77
2022-12-04T14:40:07.980Z,15.70
2022-12-04T14:42:41.763Z,15.77
2022-12-04T14:45:31.877Z,14.43
2022-12-04T14:48:31.338Z,16.63
2022-12-04T14:51:36.694Z,16.43
2022-12-04T14:54:21.180Z,15.47
2022-12-04T14:57:09.653Z,16.30
2022-12-04T14:59:48.464Z,16.40
2022-12-04T15:02:23.665Z,16.77
2022-12-04T15:04:57.270Z,13.83
2022-12-04T15:07:33.990Z,15.67
2022-12-04T15:10:32.296Z,15.47
2022-12-04T15:13:02.430Z,17.10
2022-12-04T15:15:33.659Z,15.83
2022-12-04T15:18:07.179Z,19.83
2022-12-04T15:20:56.097Z,18.33
2022-12-04T15:23:32.163Z,16.73
2022-12-04T15:26:08.216Z,17.30
2022-12-04T15:28:46.451Z,18.93
2022-12-04T15:31:22.798Z,17.17
2022-12-04T15:33:59.082Z,16.20
2022-12-04T15:36:47.681Z,16.20
2022-12-04T15:39:23.288Z,17.20
2022-12-04T15:41:53.936Z,17.27
2022-12-04T15:44:32.788Z,16.93
2022-12-04T15:47:06.454Z,15.07
2022-12-04T15:49:37.015Z,20.30
2022-12-04T15:52:18.831Z,29.43
2022-12-04T15:54:59.356Z,28.53
2022-12-04T15:57:36.672Z,42.30
2022-12-04T16:00:27.120Z,34.23
2022-12-04T16:02:59.013Z,44.60
2022-12-04T16:05:37.540Z,29.27
2022-12-04T16:08:33.067Z,39.17
2022-12-04T16:11:07.211Z,22.37
2022-12-04T16:13:40.951Z,38.07
2022-12-04T16:16:16.910Z,33.13
2022-12-04T16:18:48.464Z,34.90
2022-12-04T16:21:24.257Z,39.23
2022-12-04T16:23:56.982Z,20.77
2022-12-04T16:26:27.071Z,24.00
2022-12-04T16:28:58.616Z,20.13
2022-12-04T16:31:29.856Z,21.10
2022-12-04T16:34:00.781Z,20.23
2022-12-04T16:36:31.063Z,23.53
2022-12-04T16:39:03.882Z,22.50
2022-12-04T16:41:34.165Z,22.90
2022-12-04T16:44:05.075Z,19.30
2022-12-04T16:46:35.288Z,19.07
2022-12-04T16:49:07.632Z,20.73
2022-12-04T16:51:41.312Z,19.13
2022-12-04T16:54:15.836Z,22.07
2022-12-04T16:56:45.935Z,25.77
2022-12-04T16:59:16.482Z,19.93
2022-12-04T17:01:51.248Z,35.20
2022-12-04T17:04:22.220Z,22.87
2022-12-04T17:06:53.010Z,34.70
2022-12-04T17:09:25.890Z,36.47
2022-12-04T17:11:55.998Z,22.30
2022-12-04T17:14:26.334Z,23.87
2022-12-04T17:16:58.975Z,25.27
2022-12-04T17:19:29.253Z,33.20
2022-12-04T17:22:01.781Z,58.73
2022-12-04T17:24:37.825Z,60.50
2022-12-04T17:27:13.068Z,35.43
2022-12-04T17:29:45.073Z,27.73
2022-12-04T17:32:15.558Z,27.90
2022-12-04T17:34:47.091Z,26.67
2022-12-04T17:37:17.411Z,24.70
2022-12-04T17:39:51.102Z,27.70
2022-12-04T17:42:21.651Z,24.10
2022-12-04T17:44:52.324Z,37.10
2022-12-04T17:47:22.459Z,52.47
2022-12-04T17:49:52.757Z,34.77
2022-12-04T17:55:01.839Z,23.93
2022-12-04T17:57:32.041Z,30.77
2022-12-04T18:00:05.374Z,30.70
2022-12-04T18:02:35.527Z,23.67
2022-12-04T18:05:06.193Z,30.80
2022-12-04T18:07:36.510Z,36.27
2022-12-04T18:10:10.953Z,31.17
2022-12-04T18:12:41.130Z,33.57
2022-12-04T18:15:12.128Z,31.60
2022-12-04T18:17:42.819Z,27.57
2022-12-04T18:20:14.273Z,31.80
2022-12-04T18:22:44.447Z,51.93
2022-12-04T18:25:17.284Z,37.23
2022-12-04T18:27:47.580Z,51.23
2022-12-04T18:30:19.070Z,40.13
2022-12-04T18:32:49.180Z,36.63
2022-12-04T18:35:19.557Z,88.53
2022-12-04T18:37:49.824Z,60.40
2022-12-04T18:40:22.883Z,43.63
2022-12-04T18:42:53.023Z,53.33
2022-12-04T18:45:25.753Z,41.97
2022-12-04T18:47:56.088Z,32.23
2022-12-04T18:50:26.165Z,30.30
2022-12-04T18:53:00.937Z,29.37
2022-12-04T18:55:38.315Z,34.30
2022-12-04T18:58:08.722Z,45.00
2022-12-04T19:00:38.952Z,57.53
2022-12-04T19:03:09.079Z,94.90
2022-12-04T19:05:39.710Z,98.97
2022-12-04T19:08:10.091Z,41.87
2022-12-04T19:10:43.054Z,77.93
2022-12-04T19:13:13.261Z,50.20
2022-12-04T19:15:47.468Z,57.40
2022-12-04T19:18:17.832Z,126.53
2022-12-04T19:20:48.191Z,66.83
2022-12-04T19:23:18.328Z,87.70
2022-12-04T19:25:58.061Z,43.40
2022-12-04T19:28:29.035Z,40.17
2022-12-04T19:30:59.868Z,35.10
2022-12-04T19:33:31.176Z,28.97
2022-12-04T19:36:04.010Z,36.93
2022-12-04T19:38:35.407Z,62.30
2022-12-04T19:41:12.091Z,33.20
2022-12-04T19:43:45.467Z,49.37
2022-12-04T19:46:20.219Z,53.43
2022-12-04T19:48:50.392Z,84.30
2022-12-04T19:51:24.070Z,52.53
2022-12-04T19:53:56.510Z,40.10
2022-12-04T19:56:31.435Z,29.73
2022-12-04T19:59:04.453Z,34.40
2022-12-04T20:01:36.142Z,50.30
2022-12-04T20:04:11.620Z,40.70
2022-12-04T20:06:44.936Z,44.03
2022-12-04T20:09:22.842Z,37.07
2022-12-04T20:11:55.761Z,35.53
2022-12-04T20:14:25.967Z,33.43
2022-12-04T20:16:56.386Z,29.83
2022-12-04T20:19:26.544Z,29.10
2022-12-04T20:21:59.477Z,58.50
2022-12-04T20:24:30.008Z,38.87
2022-12-04T20:27:03.254Z,35.77
2022-12-04T20:29:33.573Z,33.43
2022-12-04T20:32:03.682Z,33.07
2022-12-04T20:34:36.533Z,32.00
2022-12-04T20:37:09.208Z,28.50
2022-12-04T20:39:40.689Z,25.57
2022-12-04T20:42:15.670Z,29.40
2022-12-04T20:44:46.233Z,28.17
2022-12-04T20:47:16.484Z,31.47
2022-12-04T20:49:46.693Z,28.43
2022-12-04T20:52:17.031Z,31.23
2022-12-04T20:54:47.533Z,25.83
2022-12-04T20:57:20.402Z,25.90
2022-12-04T20:59:50.755Z,28.73
2022-12-04T21:02:20.934Z,29.87
2022-12-04T21:04:51.311Z,30.03
2022-12-04T21:07:21.438Z,33.40
2022-12-04T21:09:51.749Z,31.67
2022-12-04T21:12:42.865Z,30.93
2022-12-04T21:15:28.592Z,30.60
2022-12-04T21:17:58.732Z,28.07
2022-12-04T21:20:32.638Z,25.50
2022-12-04T21:23:02.695Z,25.93
2022-12-04T21:25:32.910Z,27.33
2022-12-04T21:28:05.788Z,28.27
2022-12-04T21:30:38.203Z,29.30
2022-12-04T21:33:08.317Z,33.37
2022-12-04T21:35:42.402Z,32.97
2022-12-04T21:38:12.755Z,32.13
2022-12-04T21:40:43.134Z,34.53
2022-12-04T21:43:15.811Z,27.53
2022-12-04T21:45:46.228Z,27.20
2022-12-04T21:48:16.386Z,28.13
2022-12-04T21:50:48.657Z,28.03
2022-12-04T21:53:18.840Z,29.63
2022-12-04T21:55:55.430Z,31.47
2022-12-04T21:58:29.421Z,30.60
2022-12-04T22:00:59.841Z,31.10
2022-12-04T22:03:29.958Z,30.33
2022-12-04T22:06:03.369Z,28.27
2022-12-04T22:08:34.948Z,32.50
2022-12-04T22:11:09.419Z,29.37
2022-12-04T22:13:42.694Z,31.33
2022-12-04T22:16:17.334Z,32.13
2022-12-04T22:18:48.741Z,30.87
2022-12-04T22:21:20.133Z,30.30
2022-12-04T22:23:50.314Z,28.80
2022-12-04T22:26:22.084Z,30.63
2022-12-04T22:28:57.495Z,28.57
2022-12-04T22:31:32.585Z,26.00
2022-12-04T22:34:04.354Z,30.27
2022-12-04T22:36:36.264Z,30.80
2022-12-04T22:39:09.874Z,31.60
2022-12-04T22:41:41.127Z,28.23
2022-12-04T22:44:13.808Z,33.13
2022-12-04T22:46:44.281Z,32.70
2022-12-04T22:49:14.535Z,36.07
2022-12-04T22:51:44.744Z,33.20
2022-12-04T22:54:17.277Z,34.00
2022-12-04T22:56:47.475Z,31.43
2022-12-04T22:59:20.403Z,34.13
2022-12-04T23:01:50.687Z,34.73
2022-12-04T23:04:21.244Z,32.70
2022-12-04T23:06:51.442Z,33.43
2022-12-04T23:09:22.061Z,36.63
2022-12-04T23:11:55.743Z,31.47
2022-12-04T23:14:29.074Z,31.50
2022-12-04T23:16:59.970Z,29.53
2022-12-04T23:19:31.316Z,34.33
2022-12-04T23:22:01.619Z,29.87
2022-12-04T23:24:31.707Z,34.53
2022-12-04T23:27:02.835Z,36.53
2022-12-04T23:32:25.793Z,34.07
2022-12-04T23:34:55.967Z,36.10
2022-12-04T23:37:26.315Z,29.90
2022-12-04T23:39:56.773Z,33.23
2022-12-04T23:42:27.026Z,32.70
2022-12-04T23:44:59.848Z,35.13
2022-12-04T23:47:30.254Z,30.30
2022-12-04T23:50:00.599Z,35.23
2022-12-04T23:52:30.993Z,33.57
2022-12-04T23:55:01.046Z,31.60
2022-12-04T23:57:35.150Z,34.23
